Current Conditions
Rain
Conditions



Pressure
1002.03 (hPa) - 29.59 (inHG)
Visibility

9.7 (km) - 6.0 (miles)
Temperature
9  °C
Temperature
8  °C
Dewpoint
94  %
 Humidity
Wind Speed
6.3  m/s
14  mph
23  km/h
12  kts
Wind Direction
N
45°
E
90°
135°
S
180°
225°
W
270°
315°
 210°

South South
West
Airport Data
EBDT
Schaffen Airfield
Metar :EBDT 212125Z AUTO 21012KT 9999 -RA OVC010/// 09/08 Q1002 GRN
Wed 21st February 22:25 pm
Raw Metar Info
Raw METAR is the most common format in the world for the transmission of observational weather data. It is highly standardized through the International Civil Aviation Organization (ICAO), which allows it to be understood throughout most of the world.
API Info
Data Provided by
https://www.checkwx.com/weather/EBDT

Aviation Weather providing METAR, TAF, AIRMET, SIGMET and OUTLOOK Weather Reports
© Info
CSS/SVG/PHP scripts were developed by weather34 for use in the weather34 template © 2015-2024

Guide Info provided by Metar-Wikipedia